This is the latest recevied weather packets stored in our database for station/object KK7KHO. If no packets are shown the sender has not sent any weather packets the latest 10 day(s).
| Time | Temp. | Humidity | Pressure | Rain* | Wind** | Luminosity | Snow |
|---|---|---|---|---|---|---|---|
| 1777914773 | 21.11° C | 67% | 1009.9 hPa | 0 mm | - | 484 W/m² | - |
| 1777914470 | 20.56° C | 65% | 1010 hPa | 0 mm | - | 484 W/m² | - |
| 1777914167 | 21.11° C | 64% | 1010 hPa | 0 mm | - | 443 W/m² | - |
| 1777913863 | 21.11° C | 63% | 1010 hPa | 0 mm | - | 446 W/m² | - |
| 1777913560 | 20.56° C | 61% | 1010.1 hPa | 0 mm | - | 420 W/m² | - |
| 1777913256 | 20° C | 63% | 1010.2 hPa | 0 mm | - | 410 W/m² | - |
| 1777912953 | 20° C | 65% | 1010 hPa | 0 mm | - | 410 W/m² | - |
| 1777912648 | 20° C | 65% | 1009.8 hPa | 0 mm | - | 407 W/m² | - |
| 1777912345 | 20° C | 63% | 1010 hPa | 0 mm | - | 380 W/m² | - |
| 1777912041 | 20° C | 63% | 1010.1 hPa | 0 mm | - | 383 W/m² | - |
| 1777911737 | 19.44° C | 66% | 1009.9 hPa | 0 mm | - | 350 W/m² | - |
| 1777911434 | 18.89° C | 70% | 1010.1 hPa | 0 mm | - | 348 W/m² | - |
| 1777911131 | 17.78° C | 75% | 1010 hPa | 0 mm | - | 332 W/m² | - |
| 1777910829 | 17.78° C | 75% | 1010.1 hPa | 0 mm | - | 297 W/m² | - |
| 1777910525 | 18.33° C | 76% | 1010.1 hPa | 0 mm | - | 282 W/m² | - |
| 1777910222 | 18.33° C | 74% | 1010 hPa | 0 mm | - | 277 W/m² | - |
| 1777909919 | 17.22° C | 78% | 1010 hPa | 0 mm | - | 281 W/m² | - |
| 1777909616 | 16.67° C | 79% | 1009.9 hPa | 0 mm | - | 197 W/m² | - |
| 1777909313 | 17.22° C | 81% | 1010 hPa | 0 mm | - | 265 W/m² | - |
| 1777909011 | 16.11° C | 82% | 1009.9 hPa | 0 mm | - | 242 W/m² | - |
| 1777908709 | 15.56° C | 83% | 1009.9 hPa | 0 mm | - | 231 W/m² | - |
| 1777908405 | 15.56° C | 80% | 1009.6 hPa | 0 mm | - | 219 W/m² | - |
| 1777908102 | 15° C | 83% | 1009.7 hPa | 0 mm | - | 62 W/m² | - |
| 1777907798 | 15° C | 81% | 1009.7 hPa | 0 mm | - | 188 W/m² | - |
| 1777907493 | 16.11° C | 78% | 1009.8 hPa | 0 mm | - | 193 W/m² | - |
* Rain latest hour (hover to see other rain measurements)
** Current wind speed in m/s (hover to see current wind gust speed)